createdAt,value
2022-12-26T00:01:58.203Z,100535.66
2022-12-26T00:04:52.097Z,100537.84
2022-12-26T00:07:13.907Z,100526.81
2022-12-26T00:09:41.141Z,100530.84
2022-12-26T00:12:08.041Z,100521.75
2022-12-26T00:14:34.987Z,100527.44
2022-12-26T00:17:02.057Z,100523.22
2022-12-26T00:19:28.955Z,100525.16
2022-12-26T00:21:57.635Z,100535.06
2022-12-26T00:24:24.597Z,100520.03
2022-12-26T00:26:51.662Z,100515.00
2022-12-26T00:29:18.560Z,100495.75
2022-12-26T00:31:46.987Z,100509.72
2022-12-26T00:34:14.049Z,100504.34
2022-12-26T00:36:41.284Z,100516.44
2022-12-26T00:39:12.629Z,100505.41
2022-12-26T00:41:39.742Z,100516.69
2022-12-26T00:44:06.775Z,100498.50
2022-12-26T00:46:33.695Z,100498.25
2022-12-26T00:49:00.855Z,100497.50
2022-12-26T00:51:27.919Z,100487.13
2022-12-26T00:53:54.792Z,100494.69
2022-12-26T00:56:21.969Z,100474.06
2022-12-26T00:58:48.864Z,100480.78
2022-12-26T01:01:19.908Z,100497.19
2022-12-26T01:03:48.735Z,100474.13
2022-12-26T01:06:16.516Z,100477.09
2022-12-26T01:08:44.183Z,100468.03
2022-12-26T01:11:14.308Z,100471.03
2022-12-26T01:13:42.161Z,100453.31
2022-12-26T01:16:09.496Z,100465.09
2022-12-26T01:18:37.358Z,100469.41
2022-12-26T01:21:11.523Z,100465.97
2022-12-26T01:23:38.736Z,100459.81
2022-12-26T01:26:16.405Z,100458.19
2022-12-26T01:28:51.128Z,100457.13
2022-12-26T01:31:19.403Z,100462.22
2022-12-26T01:33:47.617Z,100463.84
2022-12-26T01:36:16.496Z,100465.47
2022-12-26T01:38:44.179Z,100469.22
2022-12-26T01:41:20.076Z,100457.19
2022-12-26T01:44:04.059Z,100461.22
2022-12-26T01:46:44.797Z,100446.72
2022-12-26T01:49:21.701Z,100454.56
2022-12-26T01:51:53.961Z,100445.16
2022-12-26T01:54:40.248Z,100439.84
2022-12-26T01:57:20.812Z,100433.91
2022-12-26T01:59:50.259Z,100426.63
2022-12-26T02:02:19.459Z,100424.22
2022-12-26T02:05:09.304Z,100446.47
2022-12-26T02:07:40.910Z,100445.09
2022-12-26T02:10:14.279Z,100449.13
2022-12-26T02:12:41.357Z,100443.53
2022-12-26T02:15:16.590Z,100429.56
2022-12-26T02:17:43.951Z,100435.44
2022-12-26T02:20:24.386Z,100431.50
2022-12-26T02:23:24.786Z,100440.03
2022-12-26T02:26:27.730Z,100439.47
2022-12-26T02:29:12.544Z,100419.66
2022-12-26T02:31:57.081Z,100431.00
2022-12-26T02:34:36.307Z,100429.13
2022-12-26T02:37:50.752Z,100420.81
2022-12-26T02:40:38.258Z,100428.88
2022-12-26T02:43:42.420Z,100425.69
2022-12-26T02:47:01.005Z,100426.50
2022-12-26T02:49:53.991Z,100420.81
2022-12-26T02:52:49.195Z,100423.81
2022-12-26T02:55:38.886Z,100421.19
2022-12-26T02:58:36.540Z,100418.25
2022-12-26T03:01:25.988Z,100437.56
2022-12-26T03:04:15.056Z,100423.59
2022-12-26T03:07:11.892Z,100431.19
2022-12-26T03:10:00.651Z,100436.25
2022-12-26T03:13:12.679Z,100418.34
2022-12-26T03:16:20.332Z,100423.47
2022-12-26T03:18:58.245Z,100439.03
2022-12-26T03:21:31.753Z,100433.13
2022-12-26T03:23:58.644Z,100431.28
2022-12-26T03:26:43.669Z,100428.63
2022-12-26T03:29:36.180Z,100428.34
2022-12-26T03:32:08.483Z,100441.00
2022-12-26T03:34:43.806Z,100447.75
2022-12-26T03:37:19.661Z,100444.25
2022-12-26T03:40:27.650Z,100443.47
2022-12-26T03:43:23.738Z,100446.38
2022-12-26T03:46:28.330Z,100434.84
2022-12-26T03:49:30.890Z,100424.09
2022-12-26T03:52:25.095Z,100427.09
2022-12-26T03:55:19.515Z,100435.75
2022-12-26T03:58:33.220Z,100427.38
2022-12-26T04:01:24.137Z,100440.25
2022-12-26T04:04:12.040Z,100451.03
2022-12-26T04:07:35.342Z,100433.34
2022-12-26T04:10:30.130Z,100435.22
2022-12-26T04:13:18.516Z,100444.34
2022-12-26T04:16:39.302Z,100480.91
2022-12-26T04:19:28.178Z,100469.38
2022-12-26T04:22:39.738Z,100457.84
2022-12-26T04:25:49.540Z,100450.34
2022-12-26T04:28:39.430Z,100450.84
2022-12-26T04:32:09.751Z,100456.25
2022-12-26T04:35:03.619Z,100463.50
2022-12-26T04:37:51.065Z,100450.84
2022-12-26T04:40:42.356Z,100452.75
2022-12-26T04:43:46.815Z,100460.31
2022-12-26T04:46:19.973Z,100467.81
2022-12-26T04:49:08.712Z,100469.47
2022-12-26T04:51:36.903Z,100473.22
2022-12-26T04:54:05.055Z,100459.78
2022-12-26T04:56:32.238Z,100457.63
2022-12-26T04:58:59.727Z,100463.84
2022-12-26T05:01:45.286Z,100453.09
2022-12-26T05:04:37.040Z,100466.00
2022-12-26T05:07:39.031Z,100467.63
2022-12-26T05:10:09.691Z,100469.75
2022-12-26T05:12:36.814Z,100470.81
2022-12-26T05:15:04.468Z,100474.31
2022-12-26T05:17:49.841Z,100470.81
2022-12-26T05:20:49.906Z,100478.63
2022-12-26T05:23:41.544Z,100496.59
2022-12-26T05:26:36.689Z,100492.59
2022-12-26T05:29:04.777Z,100496.03
2022-12-26T05:31:36.127Z,100492.84
2022-12-26T05:34:05.527Z,100477.56
2022-12-26T05:36:45.459Z,100478.38
2022-12-26T05:39:12.543Z,100489.09
2022-12-26T05:41:40.852Z,100497.47
2022-12-26T05:44:09.350Z,100493.44
2022-12-26T05:46:37.711Z,100497.19
2022-12-26T05:49:06.162Z,100496.19
2022-12-26T05:51:33.755Z,100498.59
2022-12-26T05:54:00.870Z,100485.41
2022-12-26T05:56:28.320Z,100489.50
2022-12-26T05:59:01.003Z,100508.03
2022-12-26T06:01:30.453Z,100498.91
2022-12-26T06:04:00.212Z,100505.13
2022-12-26T06:06:28.163Z,100495.72
2022-12-26T06:08:56.602Z,100500.56
2022-12-26T06:11:26.826Z,100489.28
2022-12-26T06:13:54.715Z,100495.50
2022-12-26T06:16:21.919Z,100514.06
2022-12-26T06:18:49.592Z,100494.19
2022-12-26T06:21:19.465Z,100505.50
2022-12-26T06:23:47.126Z,100512.53
2022-12-26T06:26:15.383Z,100490.97
2022-12-26T06:28:43.980Z,100492.31
2022-12-26T06:31:22.400Z,100492.59
2022-12-26T06:33:54.484Z,100498.84
2022-12-26T06:36:24.468Z,100498.59
2022-12-26T06:38:53.296Z,100506.66
2022-12-26T06:41:25.569Z,100517.44
2022-12-26T06:43:53.439Z,100519.00
2022-12-26T06:46:24.208Z,100540.53
2022-12-26T06:48:52.226Z,100540.53
2022-12-26T06:51:26.437Z,100541.59
2022-12-26T06:53:54.331Z,100549.09
2022-12-26T06:56:25.667Z,100553.16
2022-12-26T06:58:56.755Z,100553.16
2022-12-26T07:01:25.376Z,100549.34
2022-12-26T07:03:54.293Z,100566.56
2022-12-26T07:06:27.784Z,100557.13
2022-12-26T07:08:59.273Z,100561.41
2022-12-26T07:11:30.648Z,100577.63
2022-12-26T07:13:57.611Z,100560.09
2022-12-26T07:16:25.108Z,100569.00
2022-12-26T07:18:54.256Z,100573.31
2022-12-26T07:21:21.759Z,100570.06
2022-12-26T07:23:49.040Z,100577.31
2022-12-26T07:26:16.189Z,100572.16
2022-12-26T07:28:43.491Z,100573.81
2022-12-26T07:31:16.448Z,100572.25
2022-12-26T07:33:43.634Z,100571.41
2022-12-26T07:36:10.765Z,100573.00
2022-12-26T07:38:37.620Z,100569.00
2022-12-26T07:41:24.896Z,100572.75
2022-12-26T07:43:52.135Z,100577.09
2022-12-26T07:46:19.725Z,100579.25
2022-12-26T07:48:46.672Z,100568.47
2022-12-26T07:51:13.964Z,100556.84
2022-12-26T07:53:41.045Z,100565.75
2022-12-26T07:56:08.187Z,100578.44
2022-12-26T07:58:35.185Z,100590.19
2022-12-26T08:01:04.264Z,100597.47
2022-12-26T08:03:34.022Z,100601.78
2022-12-26T08:06:01.762Z,100596.38
2022-12-26T08:08:28.827Z,100606.34
2022-12-26T08:11:07.031Z,100604.47
2022-12-26T08:13:35.314Z,100587.22
2022-12-26T08:16:07.327Z,100586.75
2022-12-26T08:18:35.457Z,100593.78
2022-12-26T08:21:02.676Z,100578.97
2022-12-26T08:23:30.767Z,100592.66
2022-12-26T08:25:58.005Z,100578.13
2022-12-26T08:28:25.154Z,100594.34
2022-12-26T08:30:52.288Z,100594.84
2022-12-26T08:33:19.138Z,100590.31
2022-12-26T08:35:46.469Z,100596.25
2022-12-26T08:38:13.493Z,100598.16
2022-12-26T08:40:43.595Z,100589.50
2022-12-26T08:43:30.245Z,100595.75
2022-12-26T08:46:11.429Z,100598.16
2022-12-26T08:48:40.253Z,100593.88
2022-12-26T08:51:12.988Z,100593.88
2022-12-26T08:53:40.836Z,100596.28
2022-12-26T08:56:14.799Z,100598.97
2022-12-26T08:58:42.404Z,100601.41
2022-12-26T09:01:13.143Z,100591.72
2022-12-26T09:03:40.927Z,100597.19
2022-12-26T09:06:09.328Z,100601.75
2022-12-26T09:08:37.950Z,100614.91
2022-12-26T09:11:23.560Z,100613.03
2022-12-26T09:13:50.626Z,100620.81
2022-12-26T09:16:31.539Z,100626.47
2022-12-26T09:19:03.288Z,100631.03
2022-12-26T09:21:31.020Z,100634.25
2022-12-26T09:24:04.683Z,100634.28
2022-12-26T09:26:32.096Z,100645.53
2022-12-26T09:28:59.781Z,100648.22
2022-12-26T09:31:30.275Z,100644.72
2022-12-26T09:33:57.331Z,100630.22
2022-12-26T09:36:28.649Z,100643.41
2022-12-26T09:38:57.444Z,100639.13
2022-12-26T09:41:39.294Z,100634.88
2022-12-26T09:44:36.834Z,100627.38
2022-12-26T09:47:43.579Z,100625.19
2022-12-26T09:50:21.055Z,100629.78
2022-12-26T09:52:57.327Z,100623.66
2022-12-26T09:55:38.538Z,100628.25
2022-12-26T09:58:20.299Z,100626.66
2022-12-26T10:01:18.571Z,100642.84
2022-12-26T10:03:50.093Z,100631.28
2022-12-26T10:06:24.062Z,100623.78
2022-12-26T10:09:15.502Z,100639.97
2022-12-26T10:12:15.141Z,100646.44
2022-12-26T10:15:23.680Z,100657.75
2022-12-26T10:18:13.552Z,100662.88
2022-12-26T10:21:04.780Z,100656.16
2022-12-26T10:23:35.365Z,100661.28
2022-12-26T10:26:25.294Z,100655.38
2022-12-26T10:28:59.396Z,100662.66
2022-12-26T10:31:38.315Z,100660.25
2022-12-26T10:34:10.428Z,100665.38
2022-12-26T10:36:44.397Z,100669.69
2022-12-26T10:39:23.665Z,100660.25
2022-12-26T10:41:55.943Z,100655.69
2022-12-26T10:44:27.612Z,100647.88
2022-12-26T10:47:24.431Z,100657.84
2022-12-26T10:49:51.993Z,100654.53
2022-12-26T10:52:27.926Z,100653.47
2022-12-26T10:55:29.095Z,100638.13
2022-12-26T10:57:49.690Z,100652.13
2022-12-26T11:00:27.618Z,100667.97
2022-12-26T11:03:12.574Z,100657.19
2022-12-26T11:06:08.092Z,100641.06
2022-12-26T11:08:46.273Z,100647.25
2022-12-26T11:11:20.333Z,100663.13
2022-12-26T11:13:57.642Z,100661.78
2022-12-26T11:16:38.548Z,100653.41
2022-12-26T11:19:06.225Z,100659.56
2022-12-26T11:21:34.191Z,100653.66
2022-12-26T11:24:07.250Z,100653.94
2022-12-26T11:26:34.239Z,100663.81
2022-12-26T11:29:17.525Z,100654.97
2022-12-26T11:31:58.316Z,100648.22
2022-12-26T11:34:35.740Z,100648.47
2022-12-26T11:37:04.904Z,100635.50
2022-12-26T11:39:37.688Z,100626.94
2022-12-26T11:42:21.310Z,100634.69
2022-12-26T11:44:52.705Z,100638.72
2022-12-26T11:47:23.436Z,100638.41
2022-12-26T11:49:59.741Z,100651.03
2022-12-26T11:52:35.229Z,100646.47
2022-12-26T11:55:02.768Z,100646.44
2022-12-26T11:57:32.686Z,100647.53
2022-12-26T12:00:30.005Z,100648.34
2022-12-26T12:02:57.364Z,100660.69
2022-12-26T12:05:51.638Z,100656.06
2022-12-26T12:08:24.393Z,100664.13
2022-12-26T12:11:02.684Z,100662.00
2022-12-26T12:13:49.967Z,100662.84
2022-12-26T12:16:52.920Z,100652.63
2022-12-26T12:20:09.521Z,100658.00
2022-12-26T12:23:01.241Z,100657.19
2022-12-26T12:26:16.679Z,100644.81
2022-12-26T12:28:56.204Z,100643.19
2022-12-26T12:32:00.582Z,100633.78
2022-12-26T12:35:00.811Z,100636.72
2022-12-26T12:38:06.855Z,100640.72
2022-12-26T12:40:47.236Z,100640.66
2022-12-26T12:43:45.049Z,100627.00
2022-12-26T12:46:48.724Z,100635.28
2022-12-26T12:49:42.690Z,100629.09
2022-12-26T12:52:38.605Z,100626.41
2022-12-26T12:55:34.479Z,100629.91
2022-12-26T12:58:23.290Z,100625.59
2022-12-26T13:01:00.820Z,100626.41
2022-12-26T13:03:50.343Z,100640.16
2022-12-26T13:06:39.502Z,100645.03
2022-12-26T13:09:38.655Z,100641.78
2022-12-26T13:12:16.357Z,100644.47
2022-12-26T13:15:01.898Z,100648.22
2022-12-26T13:17:57.146Z,100643.91
2022-12-26T13:20:41.278Z,100641.78
2022-12-26T13:23:49.549Z,100637.72
2022-12-26T13:26:27.058Z,100627.78
2022-12-26T13:29:20.416Z,100629.41
2022-12-26T13:31:47.660Z,100620.47
2022-12-26T13:34:20.246Z,100629.09
2022-12-26T13:36:50.891Z,100644.16
2022-12-26T13:39:27.040Z,100635.28
2022-12-26T13:42:46.930Z,100645.53
2022-12-26T13:45:35.713Z,100643.09
2022-12-26T13:48:26.034Z,100640.97
2022-12-26T13:51:00.260Z,100641.78
2022-12-26T13:53:31.532Z,100639.66
2022-12-26T13:56:04.992Z,100636.66
2022-12-26T13:59:03.323Z,100653.03
2022-12-26T14:02:19.404Z,100643.91
2022-12-26T14:05:13.263Z,100664.78
2022-12-26T14:08:16.134Z,100656.41
2022-12-26T14:11:08.305Z,100661.44
2022-12-26T14:14:10.208Z,100657.59
2022-12-26T14:16:52.669Z,100670.47
2022-12-26T14:20:16.798Z,100662.31
2022-12-26T14:23:11.350Z,100670.06
2022-12-26T14:26:07.750Z,100678.06
2022-12-26T14:28:49.756Z,100689.56
2022-12-26T14:31:29.561Z,100688.75
2022-12-26T14:34:25.578Z,100691.13
2022-12-26T14:37:23.024Z,100684.09
2022-12-26T14:40:24.005Z,100688.34
2022-12-26T14:43:24.564Z,100679.91
2022-12-26T14:45:53.743Z,100674.97
2022-12-26T14:48:23.890Z,100672.81
2022-12-26T14:51:03.257Z,100678.91
2022-12-26T14:53:35.536Z,100679.31
2022-12-26T14:56:10.453Z,100683.06
2022-12-26T14:59:11.400Z,100684.88
2022-12-26T15:01:38.557Z,100682.59
2022-12-26T15:04:20.914Z,100687.97
2022-12-26T15:07:06.226Z,100674.81
2022-12-26T15:09:54.720Z,100675.31
2022-12-26T15:13:18.309Z,100671.25
2022-12-26T15:16:11.607Z,100683.59
2022-12-26T15:19:14.113Z,100688.47
2022-12-26T15:22:33.942Z,100685.47
2022-12-26T15:25:37.497Z,100684.66
2022-12-26T15:28:22.163Z,100682.84
2022-12-26T15:31:04.528Z,100664.91
2022-12-26T15:34:06.607Z,100660.34
2022-12-26T15:36:56.393Z,100659.53
2022-12-26T15:39:42.314Z,100656.53
2022-12-26T15:42:12.202Z,100659.16
2022-12-26T15:44:54.188Z,100649.22
2022-12-26T15:47:51.492Z,100652.84
2022-12-26T15:50:33.556Z,100641.72
2022-12-26T15:53:22.687Z,100653.00
2022-12-26T15:56:39.904Z,100657.50
2022-12-26T15:59:47.002Z,100653.84
2022-12-26T16:02:37.519Z,100656.47
2022-12-26T16:05:20.368Z,100655.06
2022-12-26T16:08:36.798Z,100657.41
2022-12-26T16:11:23.506Z,100660.81
2022-12-26T16:14:10.961Z,100664.00
2022-12-26T16:16:38.876Z,100663.06
2022-12-26T16:19:17.092Z,100671.47
2022-12-26T16:22:25.209Z,100666.31
2022-12-26T16:24:53.851Z,100668.66
2022-12-26T16:27:24.908Z,100678.56
2022-12-26T16:30:11.632Z,100676.00
2022-12-26T16:32:42.505Z,100675.66
2022-12-26T16:35:32.669Z,100663.06
2022-12-26T16:38:03.748Z,100673.78
2022-12-26T16:40:49.179Z,100660.75
2022-12-26T16:43:19.493Z,100662.13
2022-12-26T16:45:52.227Z,100674.78
2022-12-26T16:48:23.099Z,100675.59
2022-12-26T16:50:55.935Z,100678.84
2022-12-26T16:53:36.232Z,100692.81
2022-12-26T16:56:34.777Z,100685.44
2022-12-26T16:59:17.357Z,100684.88
2022-12-26T17:01:57.287Z,100687.41
2022-12-26T17:04:28.726Z,100700.88
2022-12-26T17:07:16.163Z,100680.97
2022-12-26T17:09:52.338Z,100689.34
2022-12-26T17:12:23.651Z,100710.38
2022-12-26T17:14:52.944Z,100706.72
2022-12-26T17:17:23.087Z,100707.59
2022-12-26T17:19:54.604Z,100714.41
2022-12-26T17:22:35.661Z,100711.22
2022-12-26T17:25:17.972Z,100712.38
2022-12-26T17:27:46.143Z,100708.69
2022-12-26T17:30:33.175Z,100717.31
2022-12-26T17:33:22.773Z,100715.19
2022-12-26T17:36:52.291Z,100720.78
2022-12-26T17:38:51.022Z,100724.03
2022-12-26T17:41:18.756Z,100717.13
2022-12-26T17:43:47.796Z,100726.78
2022-12-26T17:46:17.632Z,100716.38
2022-12-26T17:48:45.821Z,100735.91
2022-12-26T17:51:18.362Z,100723.31
2022-12-26T17:53:51.160Z,100726.28
2022-12-26T17:56:24.595Z,100727.53
2022-12-26T17:58:52.120Z,100730.97
2022-12-26T18:01:22.160Z,100732.50
2022-12-26T18:03:52.656Z,100752.84
2022-12-26T18:06:22.240Z,100757.88
2022-12-26T18:08:49.442Z,100747.41
2022-12-26T18:11:17.055Z,100754.00
2022-12-26T18:13:44.430Z,100748.88
2022-12-26T18:16:20.275Z,100752.13
2022-12-26T18:18:48.301Z,100751.47
2022-12-26T18:21:16.560Z,100748.47
2022-12-26T18:23:44.016Z,100757.91
2022-12-26T18:26:29.079Z,100765.94
2022-12-26T18:28:57.550Z,100769.94
2022-12-26T18:31:27.868Z,100770.97
2022-12-26T18:33:56.339Z,100764.56
2022-12-26T18:36:43.250Z,100759.69
2022-12-26T18:39:15.102Z,100770.91
2022-12-26T18:41:43.574Z,100749.63
2022-12-26T18:44:11.084Z,100767.91
2022-12-26T18:46:38.603Z,100756.59
2022-12-26T18:49:06.039Z,100774.56
2022-12-26T18:51:33.719Z,100780.97
2022-12-26T18:54:00.789Z,100776.91
2022-12-26T18:56:28.296Z,100795.44
2022-12-26T18:58:58.043Z,100786.81
2022-12-26T19:01:26.848Z,100797.22
2022-12-26T19:03:55.241Z,100811.91
2022-12-26T19:06:30.170Z,100809.13
2022-12-26T19:08:58.851Z,100810.56
2022-12-26T19:11:25.968Z,100810.44
2022-12-26T19:13:54.030Z,100808.47
2022-12-26T19:16:23.020Z,100831.31
2022-12-26T19:18:50.621Z,100819.44
2022-12-26T19:21:17.975Z,100825.03
2022-12-26T19:23:48.485Z,100835.91
2022-12-26T19:26:19.003Z,100853.28
2022-12-26T19:28:54.856Z,100856.09
2022-12-26T19:31:23.612Z,100858.75
2022-12-26T19:33:51.006Z,100860.19
2022-12-26T19:36:18.656Z,100864.41
2022-12-26T19:38:45.822Z,100875.59
2022-12-26T19:41:14.895Z,100870.34
2022-12-26T19:43:43.198Z,100878.63
2022-12-26T19:46:12.984Z,100873.50
2022-12-26T19:48:40.451Z,100883.28
2022-12-26T19:51:14.001Z,100901.47
2022-12-26T19:53:43.479Z,100906.72
2022-12-26T19:56:19.507Z,100909.28
2022-12-26T19:58:51.866Z,100913.22
2022-12-26T20:01:27.784Z,100918.00
2022-12-26T20:03:58.056Z,100917.19
2022-12-26T20:06:29.363Z,100916.84
2022-12-26T20:09:00.078Z,100930.91
2022-12-26T20:11:34.394Z,100933.25
2022-12-26T20:14:04.245Z,100948.34
2022-12-26T20:17:04.475Z,100931.34
2022-12-26T20:19:24.107Z,100954.63
2022-12-26T20:21:51.727Z,100951.25
2022-12-26T20:24:21.596Z,100969.38
2022-12-26T20:26:50.218Z,100965.53
2022-12-26T20:29:18.155Z,100962.50
2022-12-26T20:31:45.662Z,100963.78
2022-12-26T20:34:13.317Z,100965.66
2022-12-26T20:36:41.742Z,100972.41
2022-12-26T20:39:17.328Z,100964.00
2022-12-26T20:41:45.797Z,100957.63
2022-12-26T20:44:15.810Z,100968.78
2022-12-26T20:46:45.052Z,100962.84
2022-12-26T20:49:13.024Z,100977.09
2022-12-26T20:51:42.729Z,100989.06
2022-12-26T20:54:12.506Z,100997.19
2022-12-26T20:56:42.259Z,101002.78
2022-12-26T20:59:09.753Z,100996.03
2022-12-26T21:01:39.474Z,101004.13
2022-12-26T21:04:07.973Z,101005.41
2022-12-26T21:06:38.278Z,101003.53
2022-12-26T21:09:06.997Z,101006.69
2022-12-26T21:11:38.467Z,100999.34
2022-12-26T21:14:16.199Z,101007.59
2022-12-26T21:16:48.237Z,101024.28
2022-12-26T21:19:17.638Z,101022.75
2022-12-26T21:21:51.339Z,101032.22
2022-12-26T21:24:29.609Z,101046.94
2022-12-26T21:26:57.659Z,101035.75
2022-12-26T21:29:31.450Z,101039.66
2022-12-26T21:32:01.197Z,101045.91
2022-12-26T21:34:31.567Z,101051.75
2022-12-26T21:37:17.800Z,101061.09
2022-12-26T21:39:47.214Z,101063.25
2022-12-26T21:42:14.760Z,101067.25
2022-12-26T21:44:42.075Z,101070.19
2022-12-26T21:47:09.660Z,101074.78
2022-12-26T21:49:37.491Z,101075.63
2022-12-26T21:52:07.605Z,101087.97
2022-12-26T21:54:54.028Z,101094.13
2022-12-26T21:57:21.940Z,101106.66
2022-12-26T21:59:59.323Z,101107.66
2022-12-26T22:02:48.690Z,101106.84
2022-12-26T22:05:18.138Z,101120.19
2022-12-26T22:07:46.417Z,101127.38
2022-12-26T22:10:35.026Z,101124.91
2022-12-26T22:13:03.472Z,101117.72
2022-12-26T22:15:49.079Z,101114.47
2022-12-26T22:18:16.166Z,101122.25
2022-12-26T22:20:44.681Z,101132.53
2022-12-26T22:23:13.609Z,101146.28
2022-12-26T22:25:43.995Z,101142.34
2022-12-26T22:28:11.677Z,101154.06
2022-12-26T22:30:38.798Z,101157.75
2022-12-26T22:33:06.396Z,101179.13
2022-12-26T22:35:33.930Z,101180.75
2022-12-26T22:38:01.198Z,101171.53
2022-12-26T22:40:28.593Z,101186.53
2022-12-26T22:42:56.161Z,101186.31
2022-12-26T22:45:25.474Z,101190.22
2022-12-26T22:47:52.633Z,101199.25
2022-12-26T22:50:20.059Z,101206.44
2022-12-26T22:52:47.052Z,101216.31
2022-12-26T22:55:14.156Z,101219.19
2022-12-26T22:57:43.465Z,101216.31
2022-12-26T23:00:14.674Z,101219.19
2022-12-26T23:02:42.473Z,101214.06
2022-12-26T23:05:12.279Z,101225.78
2022-12-26T23:07:40.064Z,101233.78
2022-12-26T23:10:09.586Z,101227.25
2022-12-26T23:12:43.313Z,101237.69
2022-12-26T23:15:16.009Z,101238.75
2022-12-26T23:18:20.989Z,101235.03
2022-12-26T23:21:07.128Z,101238.34
2022-12-26T23:23:34.651Z,101232.59
2022-12-26T23:26:02.202Z,101244.06
2022-12-26T23:28:48.074Z,101233.22
2022-12-26T23:31:16.165Z,101244.06
2022-12-26T23:33:44.698Z,101237.31
2022-12-26T23:36:12.481Z,101233.41
2022-12-26T23:38:39.975Z,101236.28
2022-12-26T23:41:07.116Z,101235.69
2022-12-26T23:43:34.242Z,101225.22
2022-12-26T23:46:01.899Z,101242.25
2022-12-26T23:48:29.281Z,101235.28
2022-12-26T23:51:05.809Z,101247.00
2022-12-26T23:53:33.714Z,101242.06
2022-12-26T23:56:00.918Z,101241.06
2022-12-26T23:58:28.247Z,101242.09
